createdAt,value
2018-11-05T00:00:02.213Z,44.33
2018-11-05T00:02:29.348Z,41.37
2018-11-05T00:04:56.384Z,46.20
2018-11-05T00:07:23.928Z,48.00
2018-11-05T00:09:50.964Z,47.47
2018-11-05T00:12:18.110Z,43.90
2018-11-05T00:14:45.180Z,44.67
2018-11-05T00:17:12.216Z,50.20
2018-11-05T00:19:39.247Z,51.23
2018-11-05T00:22:06.820Z,49.40
2018-11-05T00:24:34.137Z,50.03
2018-11-05T00:27:01.196Z,49.70
2018-11-05T00:29:28.495Z,51.37
2018-11-05T00:31:55.535Z,47.00
2018-11-05T00:34:29.069Z,49.90
2018-11-05T00:36:56.204Z,48.73
2018-11-05T00:39:23.287Z,49.50
2018-11-05T00:41:50.831Z,53.47
2018-11-05T00:44:17.908Z,54.63
2018-11-05T00:46:44.963Z,51.13
2018-11-05T00:49:12.544Z,53.30
2018-11-05T00:51:40.144Z,50.53
2018-11-05T00:54:07.345Z,55.77
2018-11-05T00:56:34.531Z,54.87
2018-11-05T00:59:01.599Z,54.70
2018-11-05T01:01:28.654Z,51.70
2018-11-05T01:03:56.176Z,52.83
2018-11-05T01:06:23.301Z,54.07
2018-11-05T01:08:50.409Z,53.60
2018-11-05T01:11:17.823Z,53.40
2018-11-05T01:13:44.871Z,54.83
2018-11-05T01:16:11.928Z,54.30
2018-11-05T01:18:38.980Z,57.93
2018-11-05T01:21:06.256Z,55.43
2018-11-05T01:23:33.326Z,55.47
2018-11-05T01:26:00.379Z,54.83
2018-11-05T01:28:27.534Z,56.33
2018-11-05T01:30:54.556Z,56.40
2018-11-05T01:33:21.690Z,54.37
2018-11-05T01:35:48.764Z,52.40
2018-11-05T01:38:15.855Z,55.07
2018-11-05T01:40:43.208Z,54.80
2018-11-05T01:43:10.256Z,56.33
2018-11-05T01:45:37.288Z,54.77
2018-11-05T01:48:04.863Z,57.27
2018-11-05T01:50:31.895Z,54.27
2018-11-05T01:52:59.014Z,58.10
2018-11-05T01:55:26.092Z,57.10
2018-11-05T01:57:53.145Z,58.43
2018-11-05T02:00:20.279Z,56.67
2018-11-05T02:02:47.660Z,56.03
2018-11-05T02:05:14.692Z,56.40
2018-11-05T02:07:43.131Z,59.07
2018-11-05T02:10:12.372Z,59.07
2018-11-05T02:12:39.676Z,56.73
2018-11-05T02:15:07.023Z,54.70
2018-11-05T02:17:34.485Z,55.23
2018-11-05T02:20:01.512Z,59.10
2018-11-05T02:22:28.536Z,58.87
2018-11-05T02:24:55.649Z,61.53
2018-11-05T02:27:22.702Z,56.20
2018-11-05T02:29:49.736Z,57.50
2018-11-05T02:32:17.165Z,59.63
2018-11-05T02:34:44.228Z,61.67
2018-11-05T02:37:11.265Z,60.23
2018-11-05T02:39:38.708Z,61.93
2018-11-05T02:42:05.719Z,62.37
2018-11-05T02:44:32.733Z,60.00
2018-11-05T02:46:59.792Z,60.10
2018-11-05T02:49:26.841Z,57.70
2018-11-05T02:51:53.927Z,62.37
2018-11-05T02:54:21.011Z,55.37
2018-11-05T02:56:48.089Z,61.57
2018-11-05T02:59:15.112Z,58.97
2018-11-05T03:01:42.436Z,56.60
2018-11-05T03:04:09.483Z,58.40
2018-11-05T03:06:36.583Z,58.57
2018-11-05T03:09:05.905Z,58.40
2018-11-05T03:11:32.963Z,55.00
2018-11-05T03:13:59.983Z,57.50
2018-11-05T03:16:27.056Z,56.17
2018-11-05T03:18:54.072Z,57.60
2018-11-05T03:21:21.107Z,56.20
2018-11-05T03:23:48.172Z,51.60
2018-11-05T03:26:15.187Z,56.90
2018-11-05T03:28:42.203Z,57.53
2018-11-05T03:31:09.256Z,58.10
2018-11-05T03:33:36.280Z,50.60
2018-11-05T03:36:03.984Z,54.63
2018-11-05T03:38:31.020Z,41.27
2018-11-05T03:40:58.076Z,51.37
2018-11-05T03:43:25.116Z,55.00
2018-11-05T03:45:52.585Z,58.50
2018-11-05T03:48:19.642Z,58.60
2018-11-05T03:50:46.684Z,55.30
2018-11-05T03:53:13.744Z,57.57
2018-11-05T03:55:40.851Z,59.50
2018-11-05T03:58:07.894Z,55.73
2018-11-05T04:00:35.212Z,57.57
2018-11-05T04:03:02.325Z,54.97
2018-11-05T04:05:29.364Z,56.10
2018-11-05T04:07:56.410Z,57.50
2018-11-05T04:10:23.535Z,55.43
2018-11-05T04:12:50.598Z,53.63
2018-11-05T04:15:18.028Z,55.03
2018-11-05T04:17:45.012Z,56.20
2018-11-05T04:20:13.317Z,53.63
2018-11-05T04:22:40.922Z,55.67
2018-11-05T04:25:08.032Z,54.63
2018-11-05T04:27:35.069Z,50.03
2018-11-05T04:30:02.571Z,54.40
2018-11-05T04:32:29.653Z,54.87
2018-11-05T04:34:56.691Z,50.07
2018-11-05T04:37:23.754Z,52.70
2018-11-05T04:39:50.879Z,52.33
2018-11-05T04:42:18.015Z,49.47
2018-11-05T04:44:45.422Z,53.30
2018-11-05T04:47:13.045Z,53.23
2018-11-05T04:49:40.152Z,53.97
2018-11-05T04:52:07.590Z,53.73
2018-11-05T04:54:34.623Z,55.50
2018-11-05T04:57:01.744Z,51.77
2018-11-05T04:59:28.847Z,48.97
2018-11-05T05:01:55.881Z,51.77
2018-11-05T05:04:22.996Z,53.73
2018-11-05T05:06:50.058Z,54.77
2018-11-05T05:09:17.093Z,52.90
2018-11-05T05:11:44.160Z,52.23
2018-11-05T05:14:11.199Z,54.70
2018-11-05T05:16:38.417Z,49.90
2018-11-05T05:19:05.444Z,51.57
2018-11-05T05:21:32.578Z,51.63
2018-11-05T05:23:59.936Z,53.03
2018-11-05T05:26:26.963Z,52.90
2018-11-05T05:28:54.328Z,52.87
2018-11-05T05:31:21.443Z,52.70
2018-11-05T05:33:48.472Z,53.20
2018-11-05T05:36:15.772Z,55.67
2018-11-05T05:38:42.790Z,53.73
2018-11-05T05:41:09.871Z,49.37
2018-11-05T05:43:36.916Z,53.20
2018-11-05T05:46:04.042Z,53.83
2018-11-05T05:48:31.183Z,54.03
2018-11-05T05:50:58.575Z,52.53
2018-11-05T05:53:25.608Z,51.50
2018-11-05T05:55:52.621Z,51.13
2018-11-05T05:58:20.026Z,44.00
2018-11-05T06:00:47.100Z,52.40
2018-11-05T06:03:14.132Z,50.53
2018-11-05T06:05:41.188Z,53.90
2018-11-05T06:08:08.248Z,46.30
2018-11-05T06:10:35.265Z,52.77
2018-11-05T06:13:02.408Z,50.90
2018-11-05T06:15:29.519Z,48.13
2018-11-05T06:17:56.547Z,51.13
2018-11-05T06:20:23.604Z,53.00
2018-11-05T06:22:50.702Z,51.60
2018-11-05T06:25:18.099Z,49.13
2018-11-05T06:27:45.191Z,51.07
2018-11-05T06:30:14.248Z,50.37
2018-11-05T06:32:41.675Z,46.03
2018-11-05T06:35:09.785Z,51.50
2018-11-05T06:37:37.114Z,49.83
2018-11-05T06:40:04.457Z,49.80
2018-11-05T06:42:31.504Z,46.73
2018-11-05T06:44:58.643Z,49.43
2018-11-05T06:47:25.571Z,46.67
2018-11-05T06:49:52.692Z,49.57
2018-11-05T06:52:19.708Z,51.23
2018-11-05T06:54:46.732Z,50.70
2018-11-05T06:57:13.851Z,47.40
2018-11-05T06:59:40.864Z,49.43
2018-11-05T07:02:07.889Z,48.00
2018-11-05T07:04:34.973Z,52.50
2018-11-05T07:07:02.008Z,49.17
2018-11-05T07:09:29.046Z,45.93
2018-11-05T07:11:56.381Z,47.73
2018-11-05T07:14:23.388Z,47.40
2018-11-05T07:16:50.484Z,49.87
2018-11-05T07:19:17.599Z,47.97
2018-11-05T07:21:44.566Z,47.73
2018-11-05T07:24:11.665Z,47.80
2018-11-05T07:26:39.046Z,45.60
2018-11-05T07:29:06.191Z,47.40
2018-11-05T07:31:33.224Z,47.80
2018-11-05T07:34:00.758Z,45.37
2018-11-05T07:36:27.671Z,43.90
2018-11-05T07:38:54.688Z,42.10
2018-11-05T07:41:21.798Z,43.33
2018-11-05T07:43:48.822Z,46.57
2018-11-05T07:46:15.879Z,47.30
2018-11-05T07:48:42.940Z,46.53
2018-11-05T07:51:09.961Z,48.20
2018-11-05T07:53:37.067Z,44.53
2018-11-05T07:56:04.594Z,45.40
2018-11-05T07:58:31.622Z,43.90
2018-11-05T08:00:58.989Z,44.33
2018-11-05T08:03:26.738Z,45.10
2018-11-05T08:05:54.144Z,41.03
2018-11-05T08:08:21.271Z,43.90
2018-11-05T08:10:48.212Z,46.37
2018-11-05T08:13:15.245Z,42.60
2018-11-05T08:15:42.340Z,39.57
2018-11-05T08:18:09.645Z,46.07
2018-11-05T08:20:36.670Z,44.37
2018-11-05T08:23:03.743Z,43.00
2018-11-05T08:25:30.863Z,42.77
2018-11-05T08:27:57.899Z,41.80
2018-11-05T08:30:25.616Z,41.20
2018-11-05T08:32:52.991Z,41.17
2018-11-05T08:35:20.115Z,48.27
2018-11-05T08:37:47.579Z,46.90
2018-11-05T08:40:16.581Z,42.57
2018-11-05T08:42:44.343Z,44.57
2018-11-05T08:45:12.503Z,43.23
2018-11-05T08:47:39.952Z,44.90
2018-11-05T08:50:07.877Z,43.90
2018-11-05T08:52:34.868Z,47.43
2018-11-05T08:55:02.321Z,38.83
2018-11-05T08:57:29.440Z,43.50
2018-11-05T08:59:56.463Z,43.90
2018-11-05T09:02:23.876Z,41.93
2018-11-05T09:04:51.078Z,39.30
2018-11-05T09:07:17.935Z,43.90
2018-11-05T09:09:45.435Z,44.67
2018-11-05T09:12:12.461Z,46.17
2018-11-05T09:14:39.412Z,44.10
2018-11-05T09:17:06.777Z,43.00
2018-11-05T09:19:33.804Z,44.30
2018-11-05T09:22:00.923Z,40.10
2018-11-05T09:24:28.004Z,38.43
2018-11-05T09:26:54.992Z,43.23
2018-11-05T09:29:22.007Z,41.80
2018-11-05T09:31:49.377Z,42.70
2018-11-05T09:34:16.427Z,43.17
2018-11-05T09:36:43.464Z,44.30
2018-11-05T09:39:10.568Z,44.30
2018-11-05T09:41:37.595Z,43.80
2018-11-05T09:44:04.629Z,42.63
2018-11-05T09:46:31.916Z,41.03
2018-11-05T09:48:58.960Z,42.80
2018-11-05T09:51:25.979Z,43.60
2018-11-05T09:53:53.448Z,45.27
2018-11-05T09:56:20.519Z,44.57
2018-11-05T09:58:47.543Z,42.27
2018-11-05T10:01:14.693Z,42.90
2018-11-05T10:03:47.753Z,42.17
2018-11-05T10:06:14.629Z,42.33
2018-11-05T10:08:41.662Z,40.03
2018-11-05T10:11:08.733Z,39.43
2018-11-05T10:13:35.824Z,39.50
2018-11-05T10:16:02.851Z,38.53
2018-11-05T10:18:29.892Z,39.23
2018-11-05T10:20:57.291Z,38.93
2018-11-05T10:23:24.409Z,35.20
2018-11-05T10:25:51.471Z,40.40
2018-11-05T10:28:18.948Z,39.10
2018-11-05T10:30:46.051Z,36.20
2018-11-05T10:33:13.201Z,38.37
2018-11-05T10:35:46.176Z,37.13
2018-11-05T10:38:13.242Z,38.37
2018-11-05T10:40:40.289Z,38.57
2018-11-05T10:43:07.692Z,37.87
2018-11-05T10:45:34.793Z,36.27
2018-11-05T10:48:01.848Z,38.10
2018-11-05T10:50:29.518Z,41.67
2018-11-05T10:52:56.492Z,39.53
2018-11-05T10:55:23.591Z,40.70
2018-11-05T10:57:50.930Z,38.53
2018-11-05T11:00:24.543Z,36.23
2018-11-05T11:02:57.379Z,38.53
2018-11-05T11:05:25.272Z,40.70
2018-11-05T11:07:53.568Z,36.00
2018-11-05T11:10:20.984Z,36.93
2018-11-05T11:12:48.091Z,36.30
2018-11-05T11:15:15.233Z,36.07
2018-11-05T11:17:42.500Z,38.47
2018-11-05T11:20:10.623Z,38.00
2018-11-05T11:22:37.983Z,38.87
2018-11-05T11:25:05.435Z,35.53
2018-11-05T11:27:32.472Z,34.93
2018-11-05T11:29:59.556Z,34.33
2018-11-05T11:32:26.984Z,35.13
2018-11-05T11:34:54.016Z,38.30
2018-11-05T11:37:21.284Z,36.63
2018-11-05T11:39:48.579Z,36.10
2018-11-05T11:42:15.643Z,35.70
2018-11-05T11:44:42.714Z,37.47
2018-11-05T11:47:09.740Z,37.37
2018-11-05T11:49:36.797Z,37.57
2018-11-05T11:52:04.214Z,37.90
2018-11-05T11:54:31.309Z,37.33
2018-11-05T11:56:58.499Z,35.73
2018-11-05T11:59:25.598Z,35.37
2018-11-05T12:01:58.349Z,36.97
2018-11-05T12:04:25.342Z,39.70
2018-11-05T12:06:52.368Z,37.10
2018-11-05T12:09:19.760Z,35.63
2018-11-05T12:11:46.800Z,35.33
2018-11-05T12:14:14.143Z,36.97
2018-11-05T12:16:41.544Z,37.83
2018-11-05T12:19:08.600Z,39.07
2018-11-05T12:21:35.691Z,34.40
2018-11-05T12:24:03.280Z,37.10
2018-11-05T12:26:30.349Z,34.00
2018-11-05T12:28:57.431Z,34.63
2018-11-05T12:31:24.477Z,34.00
2018-11-05T12:33:51.520Z,33.23
2018-11-05T12:36:18.659Z,34.90
2018-11-05T12:38:45.797Z,36.23
2018-11-05T12:41:12.828Z,33.90
2018-11-05T12:43:39.875Z,32.30
2018-11-05T12:46:07.328Z,35.43
2018-11-05T12:48:34.476Z,34.93
2018-11-05T12:51:01.525Z,32.23
2018-11-05T12:53:28.985Z,33.27
2018-11-05T12:55:56.023Z,34.93
2018-11-05T12:58:23.184Z,33.90
2018-11-05T13:00:50.286Z,36.70
2018-11-05T13:03:17.341Z,35.80
2018-11-05T13:05:44.375Z,35.40
2018-11-05T13:08:11.717Z,36.60
2018-11-05T13:10:38.772Z,35.27
2018-11-05T13:13:05.934Z,35.20
2018-11-05T13:15:33.332Z,35.00
2018-11-05T13:18:00.528Z,33.77
2018-11-05T13:20:27.633Z,36.87
2018-11-05T13:22:54.855Z,38.63
2018-11-05T13:25:21.926Z,37.70
2018-11-05T13:27:49.980Z,37.33
2018-11-05T13:30:17.559Z,36.93
2018-11-05T13:32:44.954Z,37.33
2018-11-05T13:35:13.211Z,37.70
2018-11-05T13:37:40.678Z,38.57
2018-11-05T13:40:08.352Z,36.83
2018-11-05T13:42:35.404Z,38.30
2018-11-05T13:45:02.755Z,45.00
2018-11-05T13:47:30.324Z,37.37
2018-11-05T13:49:57.164Z,35.10
2018-11-05T13:52:24.057Z,35.03
2018-11-05T13:54:51.460Z,37.20
2018-11-05T13:57:18.170Z,36.87
2018-11-05T13:59:45.556Z,35.87
2018-11-05T14:02:12.659Z,35.10
2018-11-05T14:04:39.746Z,35.70
2018-11-05T14:07:06.890Z,36.30
2018-11-05T14:09:33.935Z,36.80
2018-11-05T14:12:00.992Z,36.90
2018-11-05T14:14:28.385Z,37.50
2018-11-05T14:16:55.443Z,36.90
2018-11-05T14:19:22.525Z,37.90
2018-11-05T14:21:49.587Z,36.53
2018-11-05T14:24:16.692Z,36.97
2018-11-05T14:26:43.827Z,38.97
2018-11-05T14:29:11.821Z,39.83
2018-11-05T14:31:38.348Z,38.57
2018-11-05T14:34:05.383Z,38.00
2018-11-05T14:36:32.511Z,37.60
2018-11-05T14:38:59.557Z,36.87
2018-11-05T14:41:26.668Z,38.50
2018-11-05T14:43:54.129Z,39.07
2018-11-05T14:46:21.187Z,39.93
2018-11-05T14:48:48.223Z,38.00
2018-11-05T14:51:15.842Z,37.40
2018-11-05T14:53:42.792Z,38.63
2018-11-05T14:56:09.915Z,38.93
2018-11-05T14:58:36.980Z,38.23
2018-11-05T15:01:04.034Z,39.77
2018-11-05T15:03:31.083Z,37.73
2018-11-05T15:05:58.595Z,39.00
2018-11-05T15:08:25.640Z,40.77
2018-11-05T15:10:52.684Z,38.27
2018-11-05T15:13:20.032Z,38.60
2018-11-05T15:15:47.100Z,35.90
2018-11-05T15:18:14.311Z,36.27
2018-11-05T15:20:41.500Z,36.10
2018-11-05T15:23:08.492Z,34.60
2018-11-05T15:25:35.600Z,36.30
2018-11-05T15:28:03.044Z,40.43
2018-11-05T15:30:30.127Z,34.50
2018-11-05T15:32:57.213Z,36.00
2018-11-05T15:35:24.699Z,34.90
2018-11-05T15:37:51.760Z,33.80
2018-11-05T15:40:19.987Z,34.13
2018-11-05T15:42:47.175Z,36.13
2018-11-05T15:45:16.230Z,35.00
2018-11-05T15:47:43.412Z,37.67
2018-11-05T15:50:12.216Z,35.40
2018-11-05T15:52:39.707Z,35.70
2018-11-05T15:55:06.376Z,37.33
2018-11-05T15:57:34.061Z,38.10
2018-11-05T16:00:01.444Z,38.67
2018-11-05T16:02:28.485Z,39.70
2018-11-05T16:04:55.593Z,40.00
2018-11-05T16:07:23.830Z,42.83
2018-11-05T16:09:50.913Z,42.90
2018-11-05T16:12:18.288Z,36.83
2018-11-05T16:14:45.394Z,40.07
2018-11-05T16:17:12.380Z,38.07
2018-11-05T16:19:39.492Z,37.93
2018-11-05T16:22:06.556Z,38.60
2018-11-05T16:24:33.678Z,38.90
2018-11-05T16:27:00.733Z,40.90
2018-11-05T16:29:27.775Z,40.03
2018-11-05T16:31:54.861Z,41.63
2018-11-05T16:34:22.163Z,39.27
2018-11-05T16:36:49.213Z,37.23
2018-11-05T16:39:16.318Z,38.70
2018-11-05T16:41:43.371Z,38.00
2018-11-05T16:44:10.749Z,38.97
2018-11-05T16:46:38.321Z,42.80
2018-11-05T16:49:05.858Z,38.33
2018-11-05T16:51:33.056Z,39.53
2018-11-05T16:54:01.295Z,42.33
2018-11-05T16:56:28.836Z,40.13
2018-11-05T16:58:55.957Z,37.50
2018-11-05T17:01:23.301Z,39.00
2018-11-05T17:03:50.127Z,41.97
2018-11-05T17:06:17.212Z,37.83
2018-11-05T17:08:44.351Z,40.00
2018-11-05T17:11:11.732Z,40.83
2018-11-05T17:13:39.047Z,40.20
2018-11-05T17:16:06.018Z,39.97
2018-11-05T17:18:33.331Z,39.73
2018-11-05T17:21:00.411Z,44.27
2018-11-05T17:23:27.532Z,44.03
2018-11-05T17:25:54.593Z,42.23
2018-11-05T17:28:21.683Z,42.57
2018-11-05T17:30:48.748Z,45.27
2018-11-05T17:33:16.089Z,40.80
2018-11-05T17:35:43.181Z,37.83
2018-11-05T17:38:10.276Z,37.97
2018-11-05T17:40:37.621Z,38.90
2018-11-05T17:43:04.836Z,39.20
2018-11-05T17:45:31.871Z,38.80
2018-11-05T17:47:58.987Z,37.47
2018-11-05T17:50:26.024Z,39.50
2018-11-05T17:52:53.067Z,38.07
2018-11-05T17:55:20.455Z,38.67
2018-11-05T17:57:48.151Z,39.80
2018-11-05T18:00:16.527Z,45.27
2018-11-05T18:02:44.912Z,46.63
2018-11-05T18:05:12.437Z,47.40
2018-11-05T18:07:39.476Z,45.80
2018-11-05T18:10:07.254Z,44.70
2018-11-05T18:12:34.415Z,45.23
2018-11-05T18:15:01.669Z,45.70
2018-11-05T18:17:28.827Z,49.67
2018-11-05T18:19:55.881Z,43.93
2018-11-05T18:22:23.198Z,44.00
2018-11-05T18:24:50.648Z,44.30
2018-11-05T18:27:18.009Z,38.77
2018-11-05T18:29:45.069Z,36.87
2018-11-05T18:32:18.831Z,37.30
2018-11-05T18:34:46.368Z,38.50
2018-11-05T18:37:13.697Z,38.20
2018-11-05T18:39:41.127Z,36.40
2018-11-05T18:42:09.024Z,35.00
2018-11-05T18:44:36.488Z,36.93
2018-11-05T18:47:03.911Z,32.63
2018-11-05T18:49:31.288Z,33.83
2018-11-05T18:51:58.386Z,34.33
2018-11-05T18:54:25.603Z,33.30
2018-11-05T18:56:52.681Z,34.80
2018-11-05T18:59:19.716Z,35.40
2018-11-05T19:01:47.115Z,37.90
2018-11-05T19:04:14.390Z,37.13
2018-11-05T19:06:41.472Z,35.93
2018-11-05T19:09:08.871Z,35.10
2018-11-05T19:11:36.186Z,38.33
2018-11-05T19:14:03.385Z,39.50
2018-11-05T19:16:30.549Z,40.63
2018-11-05T19:18:58.161Z,40.50
2018-11-05T19:21:25.647Z,41.53
2018-11-05T19:23:53.064Z,41.90
2018-11-05T19:26:19.811Z,41.23
2018-11-05T19:28:46.921Z,39.13
2018-11-05T19:31:14.252Z,39.70
2018-11-05T19:33:41.830Z,38.90
2018-11-05T19:36:08.918Z,40.63
2018-11-05T19:38:36.216Z,39.00
2018-11-05T19:41:03.403Z,40.37
2018-11-05T19:43:30.495Z,39.60
2018-11-05T19:45:57.816Z,37.87
2018-11-05T19:48:24.951Z,38.43
2018-11-05T19:50:52.024Z,39.73
2018-11-05T19:53:19.147Z,35.53
2018-11-05T19:55:46.179Z,34.70
2018-11-05T19:58:13.301Z,33.43
2018-11-05T20:00:40.735Z,33.87
2018-11-05T20:03:07.990Z,30.93
2018-11-05T20:05:35.290Z,31.10
2018-11-05T20:08:02.535Z,34.00
2018-11-05T20:10:29.584Z,35.70
2018-11-05T20:12:56.599Z,33.13
2018-11-05T20:15:23.922Z,33.30
2018-11-05T20:17:52.067Z,34.77
2018-11-05T20:20:20.361Z,35.43
2018-11-05T20:22:47.701Z,37.00
2018-11-05T20:25:14.713Z,36.70
2018-11-05T20:27:42.315Z,34.77
2018-11-05T20:30:11.291Z,37.63
2018-11-05T20:32:39.082Z,39.30
2018-11-05T20:35:06.191Z,34.87
2018-11-05T20:37:33.360Z,34.13
2018-11-05T20:40:00.702Z,36.60
2018-11-05T20:42:28.099Z,35.43
2018-11-05T20:44:55.486Z,32.60
2018-11-05T20:47:22.535Z,30.50
2018-11-05T20:49:49.702Z,30.47
2018-11-05T20:52:16.879Z,29.10
2018-11-05T20:54:43.992Z,29.93
2018-11-05T20:57:11.048Z,29.57
2018-11-05T20:59:38.527Z,29.77
2018-11-05T21:02:05.640Z,29.23
2018-11-05T21:04:33.091Z,27.50
2018-11-05T21:07:00.407Z,28.50
2018-11-05T21:09:27.488Z,28.80
2018-11-05T21:11:54.830Z,26.27
2018-11-05T21:14:22.263Z,27.73
2018-11-05T21:16:49.408Z,27.13
2018-11-05T21:19:16.499Z,25.83
2018-11-05T21:21:43.718Z,26.03
2018-11-05T21:24:10.599Z,23.80
2018-11-05T21:26:37.777Z,23.27
2018-11-05T21:29:06.705Z,23.47
2018-11-05T21:31:33.990Z,22.00
2018-11-05T21:34:01.046Z,23.37
2018-11-05T21:36:28.388Z,22.20
2018-11-05T21:38:55.442Z,22.23
2018-11-05T21:41:22.503Z,21.87
2018-11-05T21:43:49.731Z,22.67
2018-11-05T21:46:17.471Z,21.70
2018-11-05T21:48:44.508Z,21.20
2018-11-05T21:51:11.953Z,22.43
2018-11-05T21:53:39.108Z,22.50
2018-11-05T21:56:06.136Z,22.00
2018-11-05T21:58:33.304Z,20.90
2018-11-05T22:01:00.323Z,19.73
2018-11-05T22:03:27.414Z,20.43
2018-11-05T22:05:54.873Z,19.13
2018-11-05T22:08:21.921Z,20.57
2018-11-05T22:10:48.948Z,18.50
2018-11-05T22:13:16.407Z,19.60
2018-11-05T22:15:45.427Z,19.10
2018-11-05T22:18:12.860Z,17.97
2018-11-05T22:20:40.227Z,17.10
2018-11-05T22:23:07.488Z,17.50
2018-11-05T22:25:34.521Z,18.17
2018-11-05T22:28:01.570Z,18.27
2018-11-05T22:30:28.583Z,18.70
2018-11-05T22:32:55.603Z,18.27
2018-11-05T22:35:23.011Z,18.20
2018-11-05T22:37:50.127Z,18.57
2018-11-05T22:40:17.153Z,17.53
2018-11-05T22:42:44.575Z,18.07
2018-11-05T22:45:13.100Z,17.47
2018-11-05T22:47:40.538Z,16.50
2018-11-05T22:50:08.192Z,16.03
2018-11-05T22:52:35.340Z,17.97
2018-11-05T22:55:02.540Z,17.30
2018-11-05T22:57:29.846Z,16.17
2018-11-05T22:59:56.931Z,17.60
2018-11-05T23:02:23.988Z,17.50
2018-11-05T23:04:51.089Z,17.23
2018-11-05T23:07:18.198Z,18.60
2018-11-05T23:09:45.228Z,16.90
2018-11-05T23:12:12.626Z,17.47
2018-11-05T23:14:39.681Z,16.00
2018-11-05T23:17:06.808Z,17.30
2018-11-05T23:19:33.877Z,16.90
2018-11-05T23:22:00.916Z,16.33
2018-11-05T23:24:27.992Z,16.10
2018-11-05T23:26:55.392Z,17.07
2018-11-05T23:29:22.622Z,17.70
2018-11-05T23:31:49.798Z,17.00
2018-11-05T23:34:17.186Z,17.47
2018-11-05T23:36:44.234Z,17.30
2018-11-05T23:39:11.269Z,17.77
2018-11-05T23:41:38.436Z,16.93
2018-11-05T23:44:06.059Z,17.70
2018-11-05T23:46:33.644Z,15.77
2018-11-05T23:49:01.114Z,16.63
2018-11-05T23:51:28.445Z,17.10
2018-11-05T23:53:55.604Z,16.20
2018-11-05T23:56:22.664Z,17.27
2018-11-05T23:58:49.780Z,14.50
